Time;durP1;ratioP1;P1;durP2;ratioP2;P2;SDS_P1;SDS_P2;PMS_P1;PMS_P2;Temp;Humidity;BMP_temperature;BMP_pressure;BME280_temperature;BME280_humidity;BME280_pressure;Samples;Min_cycle;Max_cycle;Signal;HPM_P1;HPM_P2
2023/12/09 00:01:54;;;;;;;6.60;1.60;;;;;;;4.37;100.00;100764.56;5071074;28;20111;-71
2023/12/09 00:04:20;;;;;;;6.47;2.17;;;;;;;4.37;100.00;100763.75;5068666;28;20039;-71
2023/12/09 00:06:48;;;;;;;5.70;1.92;;;;;;;4.37;100.00;100764.56;5068077;28;20473;-71
2023/12/09 00:09:15;;;;;;;5.60;2.10;;;;;;;4.35;100.00;100761.25;5069287;28;20032;-71
2023/12/09 00:11:41;;;;;;;6.40;1.90;;;;;;;4.33;100.00;100768.28;5063561;28;20024;-71
2023/12/09 00:14:06;;;;;;;4.43;1.88;;;;;;;4.31;100.00;100755.47;5067328;28;20442;-71
2023/12/09 00:16:32;;;;;;;3.58;1.38;;;;;;;4.33;100.00;100765.69;5070675;28;20031;-71
2023/12/09 00:18:59;;;;;;;4.07;1.95;;;;;;;4.32;100.00;100767.44;5097328;28;20033;-71
2023/12/09 00:21:24;;;;;;;3.72;1.42;;;;;;;4.29;100.00;100770.22;5069379;28;20074;-71
2023/12/09 00:23:49;;;;;;;4.88;1.85;;;;;;;4.29;100.00;100769.38;5068437;28;20066;-71
2023/12/09 00:26:15;;;;;;;5.55;1.85;;;;;;;4.28;100.00;100771.16;5069273;28;20078;-70
2023/12/09 00:28:41;;;;;;;4.60;1.88;;;;;;;4.30;100.00;100766.72;5065769;28;20040;-71
2023/12/09 00:31:06;;;;;;;7.05;2.35;;;;;;;4.29;100.00;100764.22;5072102;28;20024;-70
2023/12/09 00:33:32;;;;;;;15.10;2.15;;;;;;;4.27;100.00;100766.91;5070296;28;20049;-70
2023/12/09 00:35:57;;;;;;;12.65;2.10;;;;;;;4.29;100.00;100769.38;5068781;28;20095;-71
2023/12/09 00:38:23;;;;;;;4.90;1.48;;;;;;;4.27;100.00;100764.31;5069790;28;20020;-70
2023/12/09 00:40:48;;;;;;;4.68;2.13;;;;;;;4.28;100.00;100755.66;5068472;28;20074;-70
2023/12/09 00:43:13;;;;;;;4.95;1.48;;;;;;;4.28;100.00;100755.66;5069559;28;20040;-71
2023/12/09 00:45:39;;;;;;;7.35;1.90;;;;;;;4.28;100.00;100763.41;5067302;28;20036;-71
2023/12/09 00:48:04;;;;;;;4.10;1.50;;;;;;;4.32;100.00;100753.72;5068777;28;21083;-70
2023/12/09 00:50:30;;;;;;;2.38;1.30;;;;;;;4.33;100.00;100756.19;5068718;28;20036;-70
2023/12/09 00:52:55;;;;;;;3.75;1.45;;;;;;;4.37;100.00;100756.00;5068766;28;20032;-70
2023/12/09 00:55:21;;;;;;;2.97;1.20;;;;;;;4.41;99.67;100757.47;5066058;28;20032;-70
2023/12/09 00:57:46;;;;;;;3.25;1.20;;;;;;;4.44;100.00;100752.94;5070058;28;20029;-70
2023/12/09 01:00:12;;;;;;;4.47;1.73;;;;;;;4.47;100.00;100754.50;5069603;28;20047;-70
2023/12/09 01:02:39;;;;;;;2.67;1.27;;;;;;;4.42;100.00;100752.22;5071799;28;20100;-70
2023/12/09 01:05:05;;;;;;;5.40;1.75;;;;;;;4.42;100.00;100762.53;5066797;28;20033;-70
2023/12/09 01:07:30;;;;;;;3.33;1.52;;;;;;;4.41;100.00;100760.06;5066296;28;20037;-71
2023/12/09 01:09:56;;;;;;;3.47;1.55;;;;;;;4.37;100.00;100767.16;5072664;28;20024;-71
2023/12/09 01:12:22;;;;;;;5.95;1.60;;;;;;;4.35;100.00;100766.44;5069387;28;20032;-71
2023/12/09 01:14:47;;;;;;;4.55;1.80;;;;;;;4.34;100.00;100760.44;5069450;28;20025;-71
2023/12/09 01:17:12;;;;;;;3.80;1.42;;;;;;;4.37;100.00;100769.75;5067801;28;20036;-70
2023/12/09 01:19:38;;;;;;;3.58;1.42;;;;;;;4.40;100.00;100766.13;5069148;28;20036;-70
2023/12/09 01:22:04;;;;;;;4.47;2.58;;;;;;;4.40;100.00;100779.88;5070107;28;20043;-71
2023/12/09 01:24:29;;;;;;;4.65;1.88;;;;;;;4.40;100.00;100769.53;5066364;28;20461;-70
2023/12/09 01:26:54;;;;;;;5.30;2.17;;;;;;;4.40;100.00;100779.88;5068986;28;20058;-70
2023/12/09 01:29:20;;;;;;;5.10;2.10;;;;;;;4.40;100.00;100771.28;5071222;28;20161;-71
2023/12/09 01:31:45;;;;;;;3.67;1.77;;;;;;;4.40;100.00;100779.03;5065939;28;20044;-71
2023/12/09 01:34:11;;;;;;;4.13;2.30;;;;;;;4.40;100.00;100784.19;5068484;28;20048;-70
2023/12/09 01:36:36;;;;;;;6.10;2.17;;;;;;;4.37;100.00;100779.22;5068234;28;20032;-71
2023/12/09 01:39:02;;;;;;;4.78;2.20;;;;;;;4.37;100.00;100779.22;5068760;28;20032;-70
2023/12/09 01:41:28;;;;;;;4.47;2.10;;;;;;;4.34;100.00;100778.50;5067703;28;20039;-71
2023/12/09 01:43:54;;;;;;;6.28;2.40;;;;;;;4.31;100.00;100776.13;5068545;28;20386;-70
2023/12/09 01:46:20;;;;;;;2.85;1.80;;;;;;;4.27;100.00;100781.56;5067682;28;20031;-71
2023/12/09 01:48:45;;;;;;;3.95;2.00;;;;;;;4.18;100.00;100780.41;5068677;28;20033;-70
2023/12/09 01:51:12;;;;;;;7.13;2.63;;;;;;;4.12;100.00;100773.06;5068155;28;20036;-71
2023/12/09 01:53:38;;;;;;;5.70;2.45;;;;;;;4.07;100.00;100771.69;5063782;28;20036;-71
2023/12/09 01:56:09;;;;;;;5.80;2.03;;;;;;;4.02;100.00;100761.66;5069245;28;20028;-70
2023/12/09 01:58:35;;;;;;;3.80;1.83;;;;;;;3.99;100.00;100761.84;5072594;28;20044;-70
2023/12/09 02:01:02;;;;;;;6.65;2.03;;;;;;;4.00;100.00;100766.06;5070828;28;20032;-71
2023/12/09 02:03:29;;;;;;;6.88;2.30;;;;;;;3.98;100.00;100763.59;5069212;28;20036;-70
2023/12/09 02:05:55;;;;;;;5.03;2.05;;;;;;;4.00;100.00;100766.91;5070759;28;20035;-71
2023/12/09 02:08:20;;;;;;;3.25;1.67;;;;;;;3.99;100.00;100762.66;5073006;28;20036;-70
2023/12/09 02:10:55;;;;;;;3.90;1.83;;;;;;;4.03;100.00;100772.78;5069757;28;20103;-71
2023/12/09 02:13:28;;;;;;;4.97;2.08;;;;;;;4.08;100.00;100773.34;5074273;28;20389;-71
2023/12/09 02:16:27;;;;;;;3.78;1.73;;;;;;;4.11;100.00;100773.97;5073043;28;20033;-71
2023/12/09 02:18:55;;;;;;;8.98;2.63;;;;;;;4.11;100.00;100776.56;5072264;28;20028;-71
2023/12/09 02:21:21;;;;;;;6.57;2.42;;;;;;;4.12;100.00;100780.78;5072811;28;20032;-71
2023/12/09 02:23:46;;;;;;;7.40;2.65;;;;;;;4.09;100.00;100770.66;5069768;28;20099;-71
2023/12/09 02:26:19;;;;;;;5.20;2.10;;;;;;;4.03;100.00;100768.47;5069699;28;20025;-71
2023/12/09 02:28:57;;;;;;;4.60;1.50;;;;;;;4.03;100.00;100772.78;5074214;28;20112;-71
2023/12/09 02:31:26;;;;;;;3.47;1.92;;;;;;;4.04;100.00;100780.44;5072109;28;20036;-71
2023/12/09 02:33:53;;;;;;;5.40;1.70;;;;;;;4.06;100.00;100776.00;5068116;28;20055;-70
2023/12/09 02:36:21;;;;;;;3.83;1.80;;;;;;;4.08;100.00;100776.75;5070560;28;20124;-71
2023/12/09 02:38:48;;;;;;;5.70;2.47;;;;;;;4.12;100.00;100770.47;5072709;28;20082;-71
2023/12/09 02:41:15;;;;;;;6.18;2.22;;;;;;;4.16;100.00;100776.28;5072051;28;20028;-71
2023/12/09 02:43:45;;;;;;;3.00;1.30;;;;;;;4.12;100.00;100779.97;5072171;28;20446;-71
2023/12/09 02:46:14;;;;;;;3.75;1.85;;;;;;;4.08;100.00;100774.16;5072824;28;20021;-71
2023/12/09 02:48:39;;;;;;;7.80;1.83;;;;;;;4.07;100.00;100776.84;5071119;28;20166;-71
2023/12/09 02:51:06;;;;;;;3.35;1.73;;;;;;;4.05;100.00;100787.25;5071932;28;20123;-71
2023/12/09 02:53:31;;;;;;;6.05;1.80;;;;;;;4.06;100.00;100786.31;5079237;28;20463;-71
2023/12/09 02:55:57;;;;;;;6.63;1.52;;;;;;;4.11;100.00;100789.44;5071242;28;20024;-71
2023/12/09 02:58:22;;;;;;;3.83;1.88;;;;;;;4.09;100.00;100788.72;5069945;28;20024;-71
2023/12/09 03:00:48;;;;;;;4.72;1.92;;;;;;;4.12;100.00;100790.28;5071528;28;20100;-71
2023/12/09 03:03:13;;;;;;;5.40;1.92;;;;;;;4.08;100.00;100786.22;5071793;28;20032;-71
2023/12/09 03:05:38;;;;;;;4.78;1.83;;;;;;;4.09;100.00;100786.13;5071226;28;20113;-71
2023/12/09 03:08:04;;;;;;;4.40;1.42;;;;;;;4.10;100.00;100789.53;5069707;28;20090;-71
2023/12/09 03:10:29;;;;;;;5.57;1.67;;;;;;;4.07;100.00;100787.97;5070261;28;20094;-71
2023/12/09 03:12:55;;;;;;;3.83;1.45;;;;;;;4.06;100.00;100793.22;5071498;28;20032;-71
2023/12/09 03:15:20;;;;;;;3.83;1.45;;;;;;;4.02;100.00;100795.16;5071603;28;20027;-71
2023/12/09 03:17:46;;;;;;;4.80;1.90;;;;;;;4.02;100.00;100797.75;5070597;28;20031;-71
2023/12/09 03:20:12;;;;;;;5.38;1.58;;;;;;;3.99;100.00;100800.50;5071145;28;20029;-71
2023/12/09 03:22:37;;;;;;;6.15;2.00;;;;;;;3.94;100.00;100799.97;5072335;28;20496;-71
2023/12/09 03:25:03;;;;;;;5.78;2.13;;;;;;;3.97;100.00;100803.19;5070423;28;20478;-71
2023/12/09 03:27:29;;;;;;;3.88;2.10;;;;;;;4.00;100.00;100797.00;5069189;28;20036;-71
2023/12/09 03:29:54;;;;;;;3.60;1.45;;;;;;;4.00;100.00;100795.25;5075879;28;20139;-71
2023/12/09 03:32:20;;;;;;;4.15;1.88;;;;;;;3.99;100.00;100796.19;5070171;28;20094;-70
2023/12/09 03:34:45;;;;;;;4.80;1.25;;;;;;;3.96;100.00;100790.38;5071818;28;20045;-71
2023/12/09 03:37:11;;;;;;;5.35;2.28;;;;;;;3.92;100.00;100799.22;5069946;28;20112;-71
2023/12/09 03:39:37;;;;;;;4.15;1.65;;;;;;;3.96;100.00;100801.53;5064369;28;20032;-71
2023/12/09 03:42:02;;;;;;;4.28;1.77;;;;;;;3.98;100.00;100804.84;5076835;28;20060;-71
2023/12/09 03:44:28;;;;;;;5.07;1.70;;;;;;;3.98;100.00;100797.09;5070397;28;20032;-71
2023/12/09 03:46:53;;;;;;;4.30;1.40;;;;;;;3.95;100.00;100801.63;5072212;28;20074;-71
2023/12/09 03:49:18;;;;;;;3.17;1.83;;;;;;;3.94;100.00;100797.38;5067242;28;20055;-71
2023/12/09 03:51:44;;;;;;;4.10;1.23;;;;;;;3.92;100.00;100787.16;5069224;28;20078;-72
2023/12/09 03:54:09;;;;;;;3.30;1.60;;;;;;;3.92;100.00;100794.06;5071432;28;20074;-71
2023/12/09 03:56:35;;;;;;;4.88;1.98;;;;;;;3.91;100.00;100797.56;5068885;28;20020;-71
2023/12/09 03:59:00;;;;;;;3.50;1.35;;;;;;;3.86;100.00;100794.44;5070476;28;20024;-71
2023/12/09 04:01:26;;;;;;;4.03;1.70;;;;;;;3.84;100.00;100785.97;5070155;28;20043;-71
2023/12/09 04:03:51;;;;;;;5.10;1.90;;;;;;;3.83;100.00;100789.47;5071242;28;20453;-71
2023/12/09 04:06:17;;;;;;;2.78;1.35;;;;;;;3.86;100.00;100799.59;5067374;28;20618;-71
2023/12/09 04:08:43;;;;;;;5.22;1.98;;;;;;;3.86;100.00;100800.44;5074401;28;20093;-71
2023/12/09 04:11:09;;;;;;;4.03;1.65;;;;;;;3.86;100.00;100800.44;5071956;28;20046;-71
2023/12/09 04:13:34;;;;;;;4.28;1.60;;;;;;;3.86;100.00;100817.63;5069552;28;20052;-71
2023/12/09 04:16:00;;;;;;;5.50;2.28;;;;;;;3.84;100.00;100816.91;5071240;28;20020;-71
2023/12/09 04:18:26;;;;;;;3.95;2.05;;;;;;;3.81;100.00;100817.91;5068220;28;20039;-71
2023/12/09 04:20:51;;;;;;;3.58;1.83;;;;;;;3.80;100.00;100816.25;5070560;28;20032;-71
2023/12/09 04:23:16;;;;;;;5.22;2.20;;;;;;;3.78;100.00;100815.53;5070335;28;20036;-71
2023/12/09 04:25:44;;;;;;;3.97;1.85;;;;;;;3.78;100.00;100819.88;5071000;28;20036;-71
2023/12/09 04:28:09;;;;;;;4.93;1.77;;;;;;;3.80;100.00;100823.16;5070349;28;20020;-71
2023/12/09 04:30:35;;;;;;;6.75;2.28;;;;;;;3.80;100.00;100821.41;5069619;28;20029;-71
2023/12/09 04:33:00;;;;;;;3.42;1.90;;;;;;;3.80;100.00;100818.00;5069099;28;20040;-70
2023/12/09 04:35:26;;;;;;;7.15;2.00;;;;;;;3.80;100.00;100810.28;5070010;28;20464;-71
2023/12/09 04:37:51;;;;;;;3.97;1.67;;;;;;;3.78;100.00;100812.94;5071675;28;20389;-71
2023/12/09 04:40:17;;;;;;;5.32;1.40;;;;;;;3.80;100.00;100820.59;5069175;28;20033;-71
2023/12/09 04:42:42;;;;;;;2.83;1.17;;;;;;;3.81;100.00;100822.25;5069852;28;20047;-71
2023/12/09 04:45:08;;;;;;;7.18;2.00;;;;;;;3.79;100.00;100812.03;5068939;28;20032;-71
2023/12/09 04:47:34;;;;;;;5.30;1.55;;;;;;;3.81;100.00;100811.94;5069042;28;20048;-71
2023/12/09 04:50:00;;;;;;;4.93;1.73;;;;;;;3.76;100.00;100814.00;5068609;28;20039;-71
2023/12/09 04:52:25;;;;;;;4.40;1.23;;;;;;;3.69;100.00;100812.69;5069643;28;20038;-71
2023/12/09 04:54:51;;;;;;;4.18;1.67;;;;;;;3.70;100.00;100820.34;5073274;28;20028;-71
2023/12/09 04:57:17;;;;;;;2.63;1.15;;;;;;;3.72;100.00;100812.50;5066997;28;20028;-70
2023/12/09 04:59:43;;;;;;;3.53;1.80;;;;;;;3.70;100.00;100809.19;5071444;28;20040;-71
2023/12/09 05:02:09;;;;;;;4.63;1.40;;;;;;;3.71;100.00;100809.09;5070438;28;20029;-71
2023/12/09 05:04:34;;;;;;;3.75;1.88;;;;;;;3.72;100.00;100799.63;5069529;28;20051;-71
2023/12/09 05:07:00;;;;;;;3.20;1.35;;;;;;;3.72;100.00;100807.38;5072514;28;20124;-71
2023/12/09 05:09:25;;;;;;;5.25;2.00;;;;;;;3.69;100.00;100802.38;5068871;28;20390;-71
2023/12/09 05:11:51;;;;;;;2.63;1.40;;;;;;;3.63;100.00;100809.56;5070295;28;20031;-71
2023/12/09 05:14:16;;;;;;;5.57;2.22;;;;;;;3.57;100.00;100809.94;5069726;28;20028;-71
2023/12/09 05:16:42;;;;;;;3.92;1.35;;;;;;;3.52;100.00;100821.41;5069021;28;20029;-71
2023/12/09 05:19:07;;;;;;;6.10;1.80;;;;;;;3.45;100.00;100830.44;5070478;28;20041;-71
2023/12/09 05:21:33;;;;;;;5.57;2.15;;;;;;;3.38;100.00;100835.09;5071109;28;20024;-71
2023/12/09 05:23:58;;;;;;;3.25;1.60;;;;;;;3.33;100.00;100830.22;5069446;28;20066;-71
2023/12/09 05:26:28;;;;;;;4.05;1.85;;;;;;;3.25;100.00;100840.16;5069091;28;20048;-71
2023/12/09 05:28:55;;;;;;;3.97;1.70;;;;;;;3.22;100.00;100836.94;5070048;28;20033;-71
2023/12/09 05:31:22;;;;;;;3.60;1.65;;;;;;;3.19;100.00;100834.53;5069322;28;20086;-71
2023/12/09 05:33:47;;;;;;;4.25;1.65;;;;;;;3.08;100.00;100842.03;5068505;28;20405;-71
2023/12/09 05:36:13;;;;;;;4.05;1.67;;;;;;;3.04;100.00;100851.69;5074231;28;20078;-71
2023/12/09 05:38:40;;;;;;;3.15;1.20;;;;;;;2.96;100.00;100853.84;5066812;28;20481;-71
2023/12/09 05:41:06;;;;;;;6.30;2.05;;;;;;;2.92;100.00;100852.38;5070230;28;20032;-71
2023/12/09 05:43:31;;;;;;;4.95;1.58;;;;;;;2.90;100.00;100851.63;5067393;28;20386;-71
2023/12/09 05:45:57;;;;;;;4.03;1.55;;;;;;;2.83;100.00;100850.34;5069293;28;20036;-71
2023/12/09 05:48:22;;;;;;;8.20;2.08;;;;;;;2.77;100.00;100856.66;5068397;28;20074;-70
2023/12/09 05:50:48;;;;;;;4.45;1.73;;;;;;;2.74;100.00;100851.69;5069556;28;20032;-71
2023/12/09 05:53:13;;;;;;;5.07;2.13;;;;;;;2.74;100.00;100849.09;5069788;28;20024;-71
2023/12/09 05:55:39;;;;;;;2.70;1.60;;;;;;;2.70;100.00;100852.75;5068681;28;20028;-71
2023/12/09 05:58:04;;;;;;;3.38;1.40;;;;;;;2.66;100.00;100853.84;5065780;28;20032;-71
2023/12/09 06:00:30;;;;;;;3.67;1.15;;;;;;;2.63;100.00;100856.56;5067289;28;20044;-71
2023/12/09 06:02:56;;;;;;;7.80;1.98;;;;;;;2.61;100.00;100860.97;5063432;28;20497;-71
2023/12/09 06:05:21;;;;;;;6.75;1.83;;;;;;;2.57;100.00;100846.63;5067037;28;20036;-71
2023/12/09 06:07:46;;;;;;;4.32;1.70;;;;;;;2.50;100.00;100837.56;5069436;28;20036;-71
2023/12/09 06:10:12;;;;;;;5.72;2.03;;;;;;;2.52;100.00;100838.31;5071693;28;20032;-70
2023/12/09 06:12:38;;;;;;;4.38;1.85;;;;;;;2.56;100.00;100832.09;5067720;28;20484;-71
2023/12/09 06:15:07;;;;;;;3.38;2.00;;;;;;;2.55;100.00;100835.59;5068920;28;20029;-71
2023/12/09 06:17:33;;;;;;;5.25;2.38;;;;;;;2.60;100.00;100833.59;5068878;28;20036;-71
2023/12/09 06:19:58;;;;;;;6.13;2.38;;;;;;;2.74;100.00;100830.25;5065910;28;20057;-71
2023/12/09 06:22:24;;;;;;;10.18;2.25;;;;;;;2.81;100.00;100834.97;5065044;28;20469;-71
2023/12/09 06:24:50;;;;;;;5.35;2.05;;;;;;;2.96;100.00;100834.09;5060204;28;20079;-71
2023/12/09 06:27:15;;;;;;;5.35;2.35;;;;;;;3.13;100.00;100835.72;5070001;28;20052;-71
2023/12/09 06:29:43;;;;;;;5.93;2.28;;;;;;;3.22;100.00;100830.03;5069408;28;20064;-71
2023/12/09 06:32:08;;;;;;;9.43;2.88;;;;;;;3.20;100.00;100838.78;5068422;28;20025;-71
2023/12/09 06:34:34;;;;;;;6.25;2.15;;;;;;;3.02;100.00;100840.63;5067620;28;20512;-71
2023/12/09 06:36:59;;;;;;;5.63;1.83;;;;;;;2.82;100.00;100835.81;5072510;28;20038;-71
2023/12/09 06:39:25;;;;;;;5.50;1.75;;;;;;;2.74;100.00;100843.94;5069765;28;20036;-71
2023/12/09 06:41:50;;;;;;;3.03;1.58;;;;;;;2.63;100.00;100839.41;5064683;28;20171;-71
2023/12/09 06:44:16;;;;;;;6.57;2.80;;;;;;;2.56;100.00;100829.53;5073111;28;20055;-71
2023/12/09 06:46:41;;;;;;;5.35;1.67;;;;;;;2.52;100.00;100820.31;5072983;28;20142;-71
2023/12/09 06:49:07;;;;;;;6.45;2.10;;;;;;;2.45;100.00;100821.56;5074589;28;20028;-71
2023/12/09 06:51:33;;;;;;;5.78;2.17;;;;;;;2.42;100.00;100821.72;5070506;28;20036;-72
2023/12/09 06:54:00;;;;;;;5.68;1.55;;;;;;;2.42;100.00;100816.59;5074671;28;20021;-71
2023/12/09 06:56:25;;;;;;;8.95;2.60;;;;;;;2.42;100.00;100811.44;5071886;28;20161;-71
2023/12/09 06:58:51;;;;;;;5.72;1.98;;;;;;;2.43;100.00;100813.09;5070751;28;20056;-71
2023/12/09 07:01:21;;;;;;;5.68;2.00;;;;;;;2.45;100.00;100812.09;5072092;28;20374;-70
2023/12/09 07:03:46;;;;;;;7.25;2.17;;;;;;;2.72;100.00;100820.06;5067266;28;20032;-71
2023/12/09 07:06:11;;;;;;;5.88;1.83;;;;;;;2.96;100.00;100817.81;5070225;28;20029;-71
2023/12/09 07:08:37;;;;;;;3.05;1.17;;;;;;;3.12;100.00;100821.19;5095245;27;20093;-71
2023/12/09 07:11:02;;;;;;;6.70;2.72;;;;;;;3.14;100.00;100833.97;5071959;28;20033;-71
2023/12/09 07:13:28;;;;;;;4.55;1.42;;;;;;;3.05;100.00;100834.50;5071173;28;20035;-73
2023/12/09 07:15:54;;;;;;;5.78;1.98;;;;;;;3.04;100.00;100835.41;5072643;28;20033;-73
2023/12/09 07:18:20;;;;;;;4.03;1.70;;;;;;;3.08;100.00;100834.31;5071014;28;20033;-73
2023/12/09 07:20:45;;;;;;;4.75;1.67;;;;;;;2.91;100.00;100830.94;5074310;28;20024;-71
2023/12/09 07:23:11;;;;;;;4.50;1.52;;;;;;;2.93;100.00;100836.00;5069105;28;20039;-71
2023/12/09 07:25:36;;;;;;;5.43;1.73;;;;;;;2.90;100.00;100836.19;5068381;28;20132;-73
2023/12/09 07:28:01;;;;;;;5.60;1.75;;;;;;;2.88;100.00;100831.13;5071570;28;20036;-73
2023/12/09 07:30:27;;;;;;;4.15;1.70;;;;;;;2.87;100.00;100826.88;5068959;28;20417;-73
2023/12/09 07:32:52;;;;;;;3.40;1.42;;;;;;;2.80;100.00;100817.06;5071629;28;20370;-73
2023/12/09 07:35:18;;;;;;;3.58;1.20;;;;;;;2.73;100.00;100808.84;5073157;28;20563;-73
2023/12/09 07:37:44;;;;;;;3.22;1.33;;;;;;;2.66;100.00;100807.53;5071856;28;20531;-73
2023/12/09 07:40:11;;;;;;;6.10;1.92;;;;;;;2.77;100.00;100817.22;5072308;28;20033;-73
2023/12/09 07:42:37;;;;;;;4.80;2.08;;;;;;;2.93;100.00;100821.41;5071465;28;20064;-73
2023/12/09 07:45:04;;;;;;;4.03;1.88;;;;;;;3.03;100.00;100819.13;5069122;28;20040;-72
2023/12/09 07:47:30;;;;;;;4.68;2.03;;;;;;;3.06;100.00;100823.28;5069514;28;20036;-74
2023/12/09 07:49:55;;;;;;;5.68;1.80;;;;;;;3.05;100.00;100814.72;5071978;28;20029;-73
2023/12/09 07:52:21;;;;;;;3.70;1.65;;;;;;;3.03;100.00;100819.13;5070750;28;20032;-73
2023/12/09 07:54:46;;;;;;;4.75;1.63;;;;;;;3.02;100.00;100826.94;5070619;28;20090;-74
2023/12/09 07:57:11;;;;;;;4.60;2.17;;;;;;;3.00;100.00;100833.00;5071526;28;20039;-74
2023/12/09 07:59:37;;;;;;;4.03;2.20;;;;;;;2.92;100.00;100836.94;5070555;28;20032;-74
2023/12/09 08:02:03;;;;;;;6.47;1.77;;;;;;;2.76;100.00;100836.16;5070290;28;20056;-74
2023/12/09 08:04:28;;;;;;;2.90;1.27;;;;;;;2.61;100.00;100837.81;5070762;28;20493;-74
2023/12/09 08:06:54;;;;;;;4.18;1.50;;;;;;;2.52;100.00;100844.28;5073378;28;20039;-74
2023/12/09 08:09:20;;;;;;;2.97;1.65;;;;;;;2.45;100.00;100842.13;5071415;28;20097;-74
2023/12/09 08:11:46;;;;;;;3.05;1.50;;;;;;;2.36;100.00;100852.94;5075708;28;20039;-74
2023/12/09 08:14:12;;;;;;;4.05;1.73;;;;;;;2.29;100.00;100843.00;5071624;28;20029;-74
2023/12/09 08:16:37;;;;;;;3.33;1.40;;;;;;;2.27;100.00;100855.09;5071615;28;20122;-74
2023/12/09 08:19:02;;;;;;;5.22;1.90;;;;;;;2.26;100.00;100858.59;5074439;28;20151;-74
2023/12/09 08:21:28;;;;;;;4.70;1.20;;;;;;;2.23;100.00;100863.88;5074524;28;20105;-74
2023/12/09 08:23:54;;;;;;;5.68;1.88;;;;;;;2.23;100.00;100863.06;5069249;28;20396;-74
2023/12/09 08:26:20;;;;;;;5.70;2.45;;;;;;;2.25;100.00;100862.06;5070008;28;20054;-74
2023/12/09 08:28:46;;;;;;;5.57;2.22;;;;;;;2.29;100.00;100861.00;5073628;28;20488;-74
2023/12/09 08:31:11;;;;;;;4.10;2.08;;;;;;;2.36;100.00;100851.22;5071202;28;20024;-74
2023/12/09 08:33:37;;;;;;;5.40;2.00;;;;;;;2.50;100.00;100858.97;5068556;28;20340;-73
2023/12/09 08:36:02;;;;;;;9.75;3.85;;;;;;;2.67;100.00;100869.19;5065229;28;20386;-74
2023/12/09 08:38:28;;;;;;;5.22;2.92;;;;;;;2.83;100.00;100884.63;5068542;28;20029;-74
2023/12/09 08:40:53;;;;;;;6.30;2.38;;;;;;;3.02;100.00;100883.56;5072539;28;20481;-74
2023/12/09 08:43:19;;;;;;;8.30;2.20;;;;;;;3.24;100.00;100889.19;5070334;28;20127;-74
2023/12/09 08:45:44;;;;;;;7.97;3.03;;;;;;;3.41;100.00;100896.75;5066425;28;20103;-74
2023/12/09 08:48:10;;;;;;;6.55;2.90;;;;;;;3.59;100.00;100900.84;5069142;28;20029;-74
2023/12/09 08:50:36;;;;;;;7.00;2.90;;;;;;;3.82;99.83;100893.50;5065903;28;20120;-74
2023/12/09 08:53:02;;;;;;;4.13;2.45;;;;;;;3.90;100.00;100896.44;5071065;28;20029;-74
2023/12/09 08:55:28;;;;;;;4.95;2.13;;;;;;;3.98;99.86;100895.06;5067531;28;20038;-74
2023/12/09 08:57:53;;;;;;;6.90;2.20;;;;;;;4.01;98.94;100896.66;5070184;28;20489;-74
2023/12/09 09:00:20;;;;;;;5.15;2.13;;;;;;;4.15;98.20;100903.56;5065730;28;20056;-74
2023/12/09 09:02:47;;;;;;;4.65;2.08;;;;;;;4.24;97.84;100909.00;5068935;28;20039;-74
2023/12/09 09:05:12;;;;;;;6.70;2.17;;;;;;;4.26;98.45;100901.97;5061516;28;20033;-74
2023/12/09 09:07:40;;;;;;;4.70;2.10;;;;;;;4.27;97.58;100898.47;5062325;28;20028;-74
2023/12/09 09:10:08;;;;;;;5.35;1.85;;;;;;;4.42;96.45;100890.72;5068432;28;20037;-74
2023/12/09 09:12:33;;;;;;;6.07;1.95;;;;;;;4.55;95.94;100889.03;5067711;28;20419;-74
2023/12/09 09:14:59;;;;;;;5.82;1.85;;;;;;;4.65;93.58;100893.53;5064594;28;20024;-74
2023/12/09 09:17:24;;;;;;;6.15;2.13;;;;;;;4.71;94.13;100894.91;5071003;28;20084;-74
2023/12/09 09:19:51;;;;;;;3.80;1.70;;;;;;;4.75;94.27;100887.75;5069904;28;20034;-73
2023/12/09 09:22:16;;;;;;;5.97;1.83;;;;;;;4.79;93.75;100881.47;5067683;28;20059;-72
2023/12/09 09:24:42;;;;;;;3.63;1.10;;;;;;;4.82;93.11;100876.94;5068285;28;20048;-74
2023/12/09 09:27:08;;;;;;;4.43;1.55;;;;;;;4.94;92.43;100871.00;5069452;28;20060;-74
2023/12/09 09:29:33;;;;;;;3.90;1.08;;;;;;;5.05;93.47;100869.50;5068892;28;20035;-74
2023/12/09 09:31:58;;;;;;;5.53;1.63;;;;;;;5.11;91.22;100864.75;5069433;28;20085;-74
2023/12/09 09:34:24;;;;;;;3.42;1.27;;;;;;;5.28;89.45;100868.81;5069335;28;20110;-74
2023/12/09 09:36:50;;;;;;;5.40;1.58;;;;;;;5.47;90.02;100871.84;5069138;28;20053;-73
2023/12/09 09:39:17;;;;;;;3.78;1.50;;;;;;;5.63;88.79;100867.31;5064636;28;20044;-74
2023/12/09 09:41:54;;;;;;;5.55;1.30;;;;;;;5.83;85.41;100870.28;5069418;28;20037;-73
2023/12/09 09:44:24;;;;;;;3.20;1.10;;;;;;;6.01;84.84;100876.84;5069347;28;20024;-74
2023/12/09 09:46:55;;;;;;;4.07;1.15;;;;;;;6.20;88.00;100881.53;5069720;28;20033;-73
2023/12/09 09:49:23;;;;;;;3.17;1.27;;;;;;;6.37;88.66;100872.63;5068313;28;20413;-72
2023/12/09 09:51:53;;;;;;;2.72;1.20;;;;;;;6.45;88.48;100875.50;5069695;28;20032;-71
2023/12/09 09:54:26;;;;;;;6.28;1.92;;;;;;;6.49;89.50;100876.94;5065293;28;20035;-72
2023/12/09 09:56:52;;;;;;;3.67;1.25;;;;;;;6.46;89.95;100869.38;5068244;28;20036;-72
2023/12/09 09:59:18;;;;;;;3.67;1.25;;;;;;;6.42;90.55;100867.94;5067980;28;20366;-72
2023/12/09 10:01:44;;;;;;;2.15;1.10;;;;;;;6.41;91.06;100876.66;5069820;28;20028;-72
2023/12/09 10:04:13;;;;;;;5.15;1.63;;;;;;;6.42;91.33;100870.53;5069812;28;20036;-71
2023/12/09 10:06:41;;;;;;;3.65;1.35;;;;;;;6.39;92.05;100876.75;5068308;28;20470;-72
2023/12/09 10:09:07;;;;;;;5.35;1.38;;;;;;;6.38;92.07;100882.88;5068255;28;20036;-72
2023/12/09 10:11:32;;;;;;;2.95;1.33;;;;;;;6.47;92.15;100876.22;5069299;28;20039;-72
2023/12/09 10:13:58;;;;;;;4.03;1.25;;;;;;;6.55;91.95;100874.75;5068440;28;20037;-72
2023/12/09 10:16:23;;;;;;;2.97;1.33;;;;;;;6.69;90.05;100873.75;5068868;28;20071;-72
2023/12/09 10:18:49;;;;;;;3.00;1.27;;;;;;;6.80;89.88;100870.38;5070994;28;20028;-72
2023/12/09 10:21:15;;;;;;;4.38;1.23;;;;;;;6.94;90.44;100863.28;5071049;28;20052;-72
2023/12/09 10:23:43;;;;;;;3.08;1.10;;;;;;;7.07;89.53;100867.56;5072195;28;20024;-71
2023/12/09 10:26:09;;;;;;;2.83;1.20;;;;;;;7.12;88.39;100855.91;5071831;28;20497;-71
2023/12/09 10:28:35;;;;;;;4.22;1.20;;;;;;;7.15;87.07;100842.72;5073091;28;20032;-72
2023/12/09 10:31:02;;;;;;;2.50;1.05;;;;;;;7.17;83.68;100840.03;5072274;28;20025;-72
2023/12/09 10:33:32;;;;;;;2.85;1.25;;;;;;;7.22;85.41;100840.50;5072211;28;20047;-71
2023/12/09 10:35:57;;;;;;;3.40;0.82;;;;;;;7.19;86.83;100828.59;5072612;28;20477;-71
2023/12/09 10:38:23;;;;;;;2.08;0.80;;;;;;;7.21;87.46;100823.31;5073296;28;20036;-71
2023/12/09 10:40:49;;;;;;;2.25;0.70;;;;;;;7.22;85.25;100818.00;5074502;28;20020;-71
2023/12/09 10:43:15;;;;;;;3.17;1.02;;;;;;;7.12;85.04;100817.03;5073230;28;20024;-71
2023/12/09 10:45:41;;;;;;;2.60;0.80;;;;;;;7.10;84.43;100815.50;5072791;28;20543;-72
2023/12/09 10:48:07;;;;;;;2.53;0.80;;;;;;;7.07;84.83;100813.16;5073791;28;20418;-72
2023/12/09 10:50:33;;;;;;;2.17;0.75;;;;;;;7.08;85.48;100812.22;5071730;28;20154;-71
2023/12/09 10:52:58;;;;;;;1.83;0.85;;;;;;;7.17;85.78;100819.28;5070316;28;20375;-72
2023/12/09 10:55:24;;;;;;;2.72;1.00;;;;;;;7.25;84.91;100810.00;5070747;28;20031;-72
2023/12/09 10:57:50;;;;;;;3.08;1.23;;;;;;;7.33;85.65;100802.50;5072138;28;20435;-72
2023/12/09 11:00:18;;;;;;;2.55;0.90;;;;;;;7.43;85.78;100801.81;5069844;28;20032;-72
2023/12/09 11:02:46;;;;;;;4.82;0.93;;;;;;;7.44;81.69;100788.72;5072714;28;20602;-74
2023/12/09 11:05:12;;;;;;;2.05;0.80;;;;;;;7.46;83.84;100789.44;5071827;28;20029;-72
2023/12/09 11:07:39;;;;;;;2.15;0.80;;;;;;;7.51;85.38;100783.91;5070741;28;20032;-72
2023/12/09 11:10:06;;;;;;;2.80;1.38;;;;;;;7.47;84.94;100783.31;5072285;28;20036;-72
2023/12/09 11:12:32;;;;;;;2.10;0.70;;;;;;;7.49;83.40;100773.66;5071042;28;20029;-71
2023/12/09 11:15:13;;;;;;;4.93;1.60;;;;;;;7.45;79.47;100769.63;5072851;28;20036;-72
2023/12/09 11:17:47;;;;;;;3.75;1.33;;;;;;;7.50;81.77;100770.09;5071979;28;20031;-72
2023/12/09 11:20:18;;;;;;;4.22;1.17;;;;;;;7.44;82.25;100778.34;5105279;28;20038;-73
2023/12/09 11:22:45;;;;;;;6.93;1.00;;;;;;;7.40;83.38;100774.34;5066613;28;20025;-73